sensor_id;sensor_type;location;lat;lon;timestamp;pressure;altitude;pressure_sealevel;temperature;humidity
26807;BME280;14380;49.910;6.792;2023-04-01T00:01:14;97028.78;;;9.62;100.00
26807;BME280;14380;49.910;6.792;2023-04-01T00:03:42;97020.31;;;9.36;100.00
26807;BME280;14380;49.910;6.792;2023-04-01T00:06:09;97020.03;;;9.62;100.00
26807;BME280;14380;49.910;6.792;2023-04-01T00:08:37;97028.09;;;9.37;100.00
26807;BME280;14380;49.910;6.792;2023-04-01T00:11:04;97030.00;;;9.58;100.00
26807;BME280;14380;49.910;6.792;2023-04-01T00:13:31;97025.22;;;9.29;100.00
26807;BME280;14380;49.910;6.792;2023-04-01T00:15:59;97023.91;;;9.46;100.00
26807;BME280;14380;49.910;6.792;2023-04-01T00:18:26;97025.22;;;9.29;100.00
26807;BME280;14380;49.910;6.792;2023-04-01T00:20:53;97025.94;;;9.54;100.00
26807;BME280;14380;49.910;6.792;2023-04-01T00:23:20;97024.13;;;9.55;100.00
26807;BME280;14380;49.910;6.792;2023-04-01T00:25:48;97011.47;;;9.26;100.00
26807;BME280;14380;49.910;6.792;2023-04-01T00:28:15;97023.19;;;9.44;100.00
26807;BME280;14380;49.910;6.792;2023-04-01T00:30:42;97019.56;;;9.57;100.00
26807;BME280;14380;49.910;6.792;2023-04-01T00:33:12;97018.84;;;9.66;100.00
26807;BME280;14380;49.910;6.792;2023-04-01T00:35:39;97020.41;;;9.57;100.00
26807;BME280;14380;49.910;6.792;2023-04-01T00:38:07;97016.34;;;9.64;100.00
26807;BME280;14380;49.910;6.792;2023-04-01T00:40:35;97021.84;;;9.61;100.00
26807;BME280;14380;49.910;6.792;2023-04-01T00:43:03;97018.97;;;9.53;100.00
26807;BME280;14380;49.910;6.792;2023-04-01T00:45:38;97025.78;;;9.67;100.00
26807;BME280;14380;49.910;6.792;2023-04-01T00:48:07;97025.09;;;9.42;100.00
26807;BME280;14380;49.910;6.792;2023-04-01T00:50:39;97025.88;;;9.77;100.00
26807;BME280;14380;49.910;6.792;2023-04-01T00:53:08;97021.13;;;9.36;100.00
26807;BME280;14380;49.910;6.792;2023-04-01T00:55:39;97016.59;;;9.61;100.00
26807;BME280;14380;49.910;6.792;2023-04-01T00:58:09;97016.44;;;9.63;100.00
26807;BME280;14380;49.910;6.792;2023-04-01T01:00:37;97019.69;;;9.66;100.00
26807;BME280;14380;49.910;6.792;2023-04-01T01:03:06;97015.50;;;9.52;100.00
26807;BME280;14380;49.910;6.792;2023-04-01T01:05:43;97005.41;;;9.69;100.00
26807;BME280;14380;49.910;6.792;2023-04-01T01:08:19;97014.19;;;9.70;100.00
26807;BME280;14380;49.910;6.792;2023-04-01T01:10:50;97000.13;;;9.80;100.00
26807;BME280;14380;49.910;6.792;2023-04-01T01:13:22;97014.06;;;9.60;100.00
26807;BME280;14380;49.910;6.792;2023-04-01T01:15:56;97003.91;;;9.44;100.00
26807;BME280;14380;49.910;6.792;2023-04-01T01:18:31;97008.28;;;9.66;100.00
26807;BME280;14380;49.910;6.792;2023-04-01T01:21:26;97002.09;;;9.56;100.00
26807;BME280;14380;49.910;6.792;2023-04-01T01:26:59;96986.06;;;9.36;100.00
26807;BME280;14380;49.910;6.792;2023-04-01T01:29:44;96987.28;;;9.32;100.00
26807;BME280;14380;49.910;6.792;2023-04-01T01:32:23;96989.19;;;9.30;100.00
26807;BME280;14380;49.910;6.792;2023-04-01T01:34:54;96988.34;;;9.41;100.00
26807;BME280;14380;49.910;6.792;2023-04-01T01:37:27;96991.22;;;9.37;100.00
26807;BME280;14380;49.910;6.792;2023-04-01T01:39:58;96983.44;;;9.25;100.00
26807;BME280;14380;49.910;6.792;2023-04-01T01:42:29;96995.03;;;9.33;100.00
26807;BME280;14380;49.910;6.792;2023-04-01T01:44:59;96994.69;;;9.38;100.00
26807;BME280;14380;49.910;6.792;2023-04-01T01:47:27;96993.03;;;9.37;100.00
26807;BME280;14380;49.910;6.792;2023-04-01T01:49:55;97004.38;;;9.49;100.00
26807;BME280;14380;49.910;6.792;2023-04-01T01:52:24;97003.78;;;9.34;100.00
26807;BME280;14380;49.910;6.792;2023-04-01T01:54:54;96992.31;;;9.46;100.00
26807;BME280;14380;49.910;6.792;2023-04-01T01:57:24;96996.00;;;9.32;100.00
26807;BME280;14380;49.910;6.792;2023-04-01T01:59:52;97003.78;;;9.45;100.00
26807;BME280;14380;49.910;6.792;2023-04-01T02:02:22;97005.22;;;9.27;100.00
26807;BME280;14380;49.910;6.792;2023-04-01T02:04:50;97006.44;;;9.34;100.00
26807;BME280;14380;49.910;6.792;2023-04-01T02:07:20;96996.84;;;9.21;100.00
26807;BME280;14380;49.910;6.792;2023-04-01T02:09:49;97001.53;;;9.18;100.00
26807;BME280;14380;49.910;6.792;2023-04-01T02:12:17;97008.22;;;9.11;100.00
26807;BME280;14380;49.910;6.792;2023-04-01T02:14:47;96999.97;;;9.15;100.00
26807;BME280;14380;49.910;6.792;2023-04-01T02:17:18;97017.81;;;9.12;100.00
26807;BME280;14380;49.910;6.792;2023-04-01T02:19:47;97013.38;;;9.12;100.00
26807;BME280;14380;49.910;6.792;2023-04-01T02:22:18;97004.41;;;9.26;100.00
26807;BME280;14380;49.910;6.792;2023-04-01T02:24:46;97013.03;;;9.17;100.00
26807;BME280;14380;49.910;6.792;2023-04-01T02:27:16;97010.50;;;9.04;100.00
26807;BME280;14380;49.910;6.792;2023-04-01T02:29:43;97007.38;;;9.21;100.00
26807;BME280;14380;49.910;6.792;2023-04-01T02:32:09;97010.38;;;8.94;100.00
26807;BME280;14380;49.910;6.792;2023-04-01T02:34:36;97003.94;;;9.21;100.00
26807;BME280;14380;49.910;6.792;2023-04-01T02:37:03;97006.66;;;9.19;100.00
26807;BME280;14380;49.910;6.792;2023-04-01T02:39:30;97001.28;;;9.21;100.00
26807;BME280;14380;49.910;6.792;2023-04-01T02:41:57;97000.44;;;8.98;100.00
26807;BME280;14380;49.910;6.792;2023-04-01T02:44:24;97008.84;;;9.03;100.00
26807;BME280;14380;49.910;6.792;2023-04-01T02:46:51;97012.41;;;8.90;100.00
26807;BME280;14380;49.910;6.792;2023-04-01T02:49:18;97003.19;;;8.96;100.00
26807;BME280;14380;49.910;6.792;2023-04-01T02:51:44;97007.28;;;9.12;100.00
26807;BME280;14380;49.910;6.792;2023-04-01T02:54:11;97007.28;;;9.12;100.00
26807;BME280;14380;49.910;6.792;2023-04-01T02:56:38;97001.91;;;9.02;100.00
26807;BME280;14380;49.910;6.792;2023-04-01T02:59:04;97009.91;;;9.12;100.00
26807;BME280;14380;49.910;6.792;2023-04-01T03:01:32;96992.16;;;8.91;100.00
26807;BME280;14380;49.910;6.792;2023-04-01T03:03:59;96996.25;;;9.06;100.00
26807;BME280;14380;49.910;6.792;2023-04-01T03:06:26;96992.41;;;8.88;100.00
26807;BME280;14380;49.910;6.792;2023-04-01T03:08:52;96997.69;;;9.11;100.00
26807;BME280;14380;49.910;6.792;2023-04-01T03:11:19;97005.59;;;8.99;100.00
26807;BME280;14380;49.910;6.792;2023-04-01T03:13:46;97009.53;;;8.93;100.00
26807;BME280;14380;49.910;6.792;2023-04-01T03:16:14;97006.91;;;9.05;100.00
26807;BME280;14380;49.910;6.792;2023-04-01T03:18:42;97006.91;;;8.93;100.00
26807;BME280;14380;49.910;6.792;2023-04-01T03:21:13;96999.47;;;8.87;100.00
26807;BME280;14380;49.910;6.792;2023-04-01T03:23:40;97007.25;;;9.00;100.00
26807;BME280;14380;49.910;6.792;2023-04-01T03:26:06;97003.91;;;8.98;100.00
26807;BME280;14380;49.910;6.792;2023-04-01T03:28:33;97007.84;;;9.15;100.00
26807;BME280;14380;49.910;6.792;2023-04-01T03:31:00;97009.06;;;9.00;100.00
26807;BME280;14380;49.910;6.792;2023-04-01T03:33:27;96999.84;;;9.05;100.00
26807;BME280;14380;49.910;6.792;2023-04-01T03:35:55;97002.50;;;9.17;100.00
26807;BME280;14380;49.910;6.792;2023-04-01T03:38:22;96997.44;;;9.02;100.00
26807;BME280;14380;49.910;6.792;2023-04-01T03:40:49;97005.84;;;9.07;100.00
26807;BME280;14380;49.910;6.792;2023-04-01T03:43:16;96994.81;;;8.91;100.00
26807;BME280;14380;49.910;6.792;2023-04-01T03:45:44;96992.78;;;8.95;100.00
26807;BME280;14380;49.910;6.792;2023-04-01T03:48:11;96993.75;;;8.93;100.00
26807;BME280;14380;49.910;6.792;2023-04-01T03:50:38;96989.69;;;9.01;100.00
26807;BME280;14380;49.910;6.792;2023-04-01T03:53:06;96995.41;;;9.06;100.00
26807;BME280;14380;49.910;6.792;2023-04-01T03:55:33;96989.56;;;8.80;100.00
26807;BME280;14380;49.910;6.792;2023-04-01T03:58:01;96982.00;;;8.75;100.00
26807;BME280;14380;49.910;6.792;2023-04-01T04:00:28;96977.84;;;9.06;100.00
26807;BME280;14380;49.910;6.792;2023-04-01T04:02:55;96981.66;;;9.14;100.00
26807;BME280;14380;49.910;6.792;2023-04-01T04:05:22;96975.91;;;9.08;100.00
26807;BME280;14380;49.910;6.792;2023-04-01T04:07:49;96982.72;;;8.88;100.00
26807;BME280;14380;49.910;6.792;2023-04-01T04:10:18;96991.31;;;8.79;100.00
26807;BME280;14380;49.910;6.792;2023-04-01T04:12:45;96983.81;;;8.97;100.00
26807;BME280;14380;49.910;6.792;2023-04-01T04:15:12;96990.41;;;9.03;100.00
26807;BME280;14380;49.910;6.792;2023-04-01T04:17:39;96978.91;;;8.92;100.00
26807;BME280;14380;49.910;6.792;2023-04-01T04:20:06;96983.56;;;8.89;100.00
26807;BME280;14380;49.910;6.792;2023-04-01T04:22:34;96988.59;;;8.81;100.00
26807;BME280;14380;49.910;6.792;2023-04-01T04:25:01;96986.06;;;8.79;100.00
26807;BME280;14380;49.910;6.792;2023-04-01T04:27:29;96983.91;;;8.84;100.00
26807;BME280;14380;49.910;6.792;2023-04-01T04:29:56;96980.47;;;8.95;100.00
26807;BME280;14380;49.910;6.792;2023-04-01T04:32:22;96982.25;;;8.95;100.00
26807;BME280;14380;49.910;6.792;2023-04-01T04:34:49;96975.91;;;8.74;100.00
26807;BME280;14380;49.910;6.792;2023-04-01T04:37:16;96985.94;;;8.69;100.00
26807;BME280;14380;49.910;6.792;2023-04-01T04:39:43;96977.34;;;8.78;100.00
26807;BME280;14380;49.910;6.792;2023-04-01T04:42:09;96985.59;;;8.85;100.00
26807;BME280;14380;49.910;6.792;2023-04-01T04:44:38;96976.16;;;8.94;100.00
26807;BME280;14380;49.910;6.792;2023-04-01T04:47:05;96978.53;;;8.86;100.00
26807;BME280;14380;49.910;6.792;2023-04-01T04:49:31;96970.50;;;8.76;100.00
26807;BME280;14380;49.910;6.792;2023-04-01T04:51:58;96976.97;;;8.72;100.00
26807;BME280;14380;49.910;6.792;2023-04-01T04:54:25;96973.25;;;8.86;100.00
26807;BME280;14380;49.910;6.792;2023-04-01T04:56:52;96981.06;;;8.87;100.00
26807;BME280;14380;49.910;6.792;2023-04-01T04:59:19;96984.41;;;8.89;100.00
26807;BME280;14380;49.910;6.792;2023-04-01T05:01:47;96993.38;;;8.98;100.00
26807;BME280;14380;49.910;6.792;2023-04-01T05:04:17;96992.28;;;8.78;100.00
26807;BME280;14380;49.910;6.792;2023-04-01T05:06:44;96984.91;;;8.95;100.00
26807;BME280;14380;49.910;6.792;2023-04-01T05:09:11;96988.59;;;8.81;100.00
26807;BME280;14380;49.910;6.792;2023-04-01T05:11:37;96980.59;;;8.93;100.00
26807;BME280;14380;49.910;6.792;2023-04-01T05:14:05;96996.59;;;8.79;100.00
26807;BME280;14380;49.910;6.792;2023-04-01T05:16:31;96985.38;;;8.88;100.00
26807;BME280;14380;49.910;6.792;2023-04-01T05:19:00;96980.94;;;9.00;100.00
26807;BME280;14380;49.910;6.792;2023-04-01T05:21:26;96989.78;;;8.88;100.00
26807;BME280;14380;49.910;6.792;2023-04-01T05:23:53;96991.69;;;8.97;100.00
26807;BME280;14380;49.910;6.792;2023-04-01T05:26:20;96988.59;;;8.92;100.00
26807;BME280;14380;49.910;6.792;2023-04-01T05:28:47;96990.28;;;8.82;100.00
26807;BME280;14380;49.910;6.792;2023-04-01T05:31:13;97005.09;;;8.94;100.00
26807;BME280;14380;49.910;6.792;2023-04-01T05:33:40;96996.88;;;8.99;100.00
26807;BME280;14380;49.910;6.792;2023-04-01T05:36:10;97000.09;;;9.14;100.00
26807;BME280;14380;49.910;6.792;2023-04-01T05:38:37;97002.13;;;9.21;100.00
26807;BME280;14380;49.910;6.792;2023-04-01T05:41:04;97004.03;;;9.19;100.00
26807;BME280;14380;49.910;6.792;2023-04-01T05:43:30;97001.16;;;9.22;100.00
26807;BME280;14380;49.910;6.792;2023-04-01T05:45:57;97001.88;;;9.13;100.00
26807;BME280;14380;49.910;6.792;2023-04-01T05:48:24;97008.00;;;9.25;100.00
26807;BME280;14380;49.910;6.792;2023-04-01T05:50:51;97010.25;;;9.07;100.00
26807;BME280;14380;49.910;6.792;2023-04-01T05:53:19;97000.94;;;9.26;100.00
26807;BME280;14380;49.910;6.792;2023-04-01T05:55:46;97011.81;;;9.10;100.00
26807;BME280;14380;49.910;6.792;2023-04-01T05:58:12;97008.91;;;8.90;100.00
26807;BME280;14380;49.910;6.792;2023-04-01T06:00:39;97019.09;;;9.06;100.00
26807;BME280;14380;49.910;6.792;2023-04-01T06:03:05;97018.63;;;9.12;100.00
26807;BME280;14380;49.910;6.792;2023-04-01T06:05:38;97008.84;;;9.03;100.00
26807;BME280;14380;49.910;6.792;2023-04-01T06:08:10;97020.44;;;9.34;100.00
26807;BME280;14380;49.910;6.792;2023-04-01T06:10:47;97020.53;;;9.10;100.00
26807;BME280;14380;49.910;6.792;2023-04-01T06:13:23;97023.09;;;9.23;100.00
26807;BME280;14380;49.910;6.792;2023-04-01T06:15:53;97027.25;;;9.26;100.00
26807;BME280;14380;49.910;6.792;2023-04-01T06:18:47;97030.75;;;9.26;100.00
26807;BME280;14380;49.910;6.792;2023-04-01T06:21:28;97022.38;;;9.21;100.00
26807;BME280;14380;49.910;6.792;2023-04-01T06:24:11;97038.88;;;9.12;100.00
26807;BME280;14380;49.910;6.792;2023-04-01T06:26:46;97036.81;;;9.15;100.00
26807;BME280;14380;49.910;6.792;2023-04-01T06:32:18;97031.69;;;9.25;100.00
26807;BME280;14380;49.910;6.792;2023-04-01T06:34:59;97025.22;;;9.41;100.00
26807;BME280;14380;49.910;6.792;2023-04-01T06:37:43;97028.91;;;9.49;100.00
26807;BME280;14380;49.910;6.792;2023-04-01T06:40:27;97040.28;;;9.61;100.00
26807;BME280;14380;49.910;6.792;2023-04-01T06:43:06;97037.91;;;9.35;100.00
26807;BME280;14380;49.910;6.792;2023-04-01T06:45:42;97036.81;;;9.49;100.00
26807;BME280;14380;49.910;6.792;2023-04-01T06:48:38;97029.66;;;9.40;100.00
26807;BME280;14380;49.910;6.792;2023-04-01T06:51:16;97029.72;;;9.73;100.00
26807;BME280;14380;49.910;6.792;2023-04-01T06:53:51;97029.91;;;9.37;100.00
26807;BME280;14380;49.910;6.792;2023-04-01T06:56:25;97037.09;;;9.46;100.00
26807;BME280;14380;49.910;6.792;2023-04-01T06:58:56;97044.13;;;9.46;100.00
26807;BME280;14380;49.910;6.792;2023-04-01T07:01:29;97042.44;;;9.45;100.00
26807;BME280;14380;49.910;6.792;2023-04-01T07:03:59;97047.00;;;9.54;100.00
26807;BME280;14380;49.910;6.792;2023-04-01T07:06:31;97046.78;;;9.57;100.00
26807;BME280;14380;49.910;6.792;2023-04-01T07:09:02;97050.34;;;9.67;100.00
26807;BME280;14380;49.910;6.792;2023-04-01T07:11:34;97048.63;;;9.89;100.00
26807;BME280;14380;49.910;6.792;2023-04-01T07:14:04;97050.13;;;9.48;100.00
26807;BME280;14380;49.910;6.792;2023-04-01T07:16:41;97051.31;;;9.66;100.00
26807;BME280;14380;49.910;6.792;2023-04-01T07:19:14;97056.44;;;9.68;100.00
26807;BME280;14380;49.910;6.792;2023-04-01T07:21:46;97055.09;;;9.85;100.00
26807;BME280;14380;49.910;6.792;2023-04-01T07:24:17;97059.97;;;10.01;100.00
26807;BME280;14380;49.910;6.792;2023-04-01T07:26:52;97059.72;;;10.04;100.00
26807;BME280;14380;49.910;6.792;2023-04-01T07:29:22;97064.66;;;10.09;100.00
26807;BME280;14380;49.910;6.792;2023-04-01T07:32:07;97061.63;;;10.14;100.00
26807;BME280;14380;49.910;6.792;2023-04-01T07:34:42;97062.63;;;10.01;100.00
26807;BME280;14380;49.910;6.792;2023-04-01T07:37:15;97076.25;;;10.18;100.00
26807;BME280;14380;49.910;6.792;2023-04-01T07:39:51;97074.16;;;10.44;100.00
26807;BME280;14380;49.910;6.792;2023-04-01T07:42:27;97076.56;;;10.24;100.00
26807;BME280;14380;49.910;6.792;2023-04-01T07:45:07;97076.81;;;10.21;100.00
26807;BME280;14380;49.910;6.792;2023-04-01T07:47:49;97079.50;;;10.10;100.00
26807;BME280;14380;49.910;6.792;2023-04-01T07:50:23;97083.28;;;10.29;100.00
26807;BME280;14380;49.910;6.792;2023-04-01T07:53:02;97083.81;;;10.55;100.00
26807;BME280;14380;49.910;6.792;2023-04-01T07:55:38;97090.13;;;10.64;100.00
26807;BME280;14380;49.910;6.792;2023-04-01T07:58:11;97086.16;;;10.69;100.00
26807;BME280;14380;49.910;6.792;2023-04-01T08:00:46;97089.06;;;10.88;100.00
26807;BME280;14380;49.910;6.792;2023-04-01T08:03:25;97088.66;;;10.71;100.00
26807;BME280;14380;49.910;6.792;2023-04-01T08:05:59;97094.97;;;10.59;100.00
26807;BME280;14380;49.910;6.792;2023-04-01T08:08:36;97085.72;;;11.07;100.00
26807;BME280;14380;49.910;6.792;2023-04-01T08:11:14;97087.59;;;10.74;100.00
26807;BME280;14380;49.910;6.792;2023-04-01T08:13:53;97101.81;;;11.04;100.00
26807;BME280;14380;49.910;6.792;2023-04-01T08:16:32;97101.34;;;11.20;100.00
26807;BME280;14380;49.910;6.792;2023-04-01T08:19:09;97101.34;;;11.41;100.00
26807;BME280;14380;49.910;6.792;2023-04-01T08:21:47;97105.84;;;11.50;100.00
26807;BME280;14380;49.910;6.792;2023-04-01T08:24:25;97103.97;;;11.41;100.00
26807;BME280;14380;49.910;6.792;2023-04-01T08:26:55;97105.38;;;11.45;100.00
26807;BME280;14380;49.910;6.792;2023-04-01T08:29:26;97101.66;;;11.48;100.00
26807;BME280;14380;49.910;6.792;2023-04-01T08:32:03;97111.81;;;11.52;100.00
26807;BME280;14380;49.910;6.792;2023-04-01T08:34:35;97110.50;;;11.37;100.00
26807;BME280;14380;49.910;6.792;2023-04-01T08:37:07;97112.88;;;11.40;100.00
26807;BME280;14380;49.910;6.792;2023-04-01T08:39:37;97115.97;;;11.45;100.00
26807;BME280;14380;49.910;6.792;2023-04-01T08:42:22;97124.16;;;11.42;100.00
26807;BME280;14380;49.910;6.792;2023-04-01T08:45:14;97114.53;;;11.41;100.00
26807;BME280;14380;49.910;6.792;2023-04-01T08:51:13;97121.41;;;11.43;100.00
26807;BME280;14380;49.910;6.792;2023-04-01T08:53:59;97118.94;;;11.93;100.00
26807;BME280;14380;49.910;6.792;2023-04-01T08:56:34;97113.19;;;11.78;100.00
26807;BME280;14380;49.910;6.792;2023-04-01T08:59:14;97123.72;;;11.68;100.00
26807;BME280;14380;49.910;6.792;2023-04-01T09:01:52;97117.38;;;11.80;100.00
26807;BME280;14380;49.910;6.792;2023-04-01T09:04:38;97123.19;;;11.74;100.00
26807;BME280;14380;49.910;6.792;2023-04-01T09:07:18;97124.25;;;11.62;100.00
26807;BME280;14380;49.910;6.792;2023-04-01T09:10:18;97126.28;;;11.48;100.00
26807;BME280;14380;49.910;6.792;2023-04-01T09:12:57;97124.28;;;11.71;100.00
26807;BME280;14380;49.910;6.792;2023-04-01T09:18:18;97135.16;;;11.78;100.00
26807;BME280;14380;49.910;6.792;2023-04-01T09:21:04;97125.16;;;12.13;100.00
26807;BME280;14380;49.910;6.792;2023-04-01T09:23:59;97129.06;;;12.18;100.00
26807;BME280;14380;49.910;6.792;2023-04-01T09:26:47;97128.13;;;12.29;100.00
26807;BME280;14380;49.910;6.792;2023-04-01T09:29:29;97121.56;;;12.24;100.00
26807;BME280;14380;49.910;6.792;2023-04-01T09:35:19;97139.00;;;12.36;100.00
26807;BME280;14380;49.910;6.792;2023-04-01T09:37:53;97134.56;;;12.66;100.00
26807;BME280;14380;49.910;6.792;2023-04-01T09:40:25;97139.28;;;12.43;100.00
26807;BME280;14380;49.910;6.792;2023-04-01T09:43:18;97138.22;;;12.85;100.00
26807;BME280;14380;49.910;6.792;2023-04-01T09:46:02;97138.06;;;12.86;100.00
26807;BME280;14380;49.910;6.792;2023-04-01T09:48:51;97142.38;;;13.17;100.00
26807;BME280;14380;49.910;6.792;2023-04-01T09:51:28;97144.72;;;13.39;100.00
26807;BME280;14380;49.910;6.792;2023-04-01T09:54:24;97157.88;;;12.92;100.00
26807;BME280;14380;49.910;6.792;2023-04-01T10:07:03;97154.94;;;12.75;100.00
26807;BME280;14380;49.910;6.792;2023-04-01T10:13:04;97163.44;;;12.89;100.00
26807;BME280;14380;49.910;6.792;2023-04-01T10:18:53;97167.75;;;12.90;100.00
26807;BME280;14380;49.910;6.792;2023-04-01T10:21:47;97163.72;;;12.86;100.00
26807;BME280;14380;49.910;6.792;2023-04-01T10:24:57;97169.31;;;13.02;100.00
26807;BME280;14380;49.910;6.792;2023-04-01T10:27:43;97167.63;;;13.01;100.00
26807;BME280;14380;49.910;6.792;2023-04-01T10:36:48;97172.22;;;13.09;100.00
26807;BME280;14380;49.910;6.792;2023-04-01T10:46:00;97192.28;;;12.22;100.00
26807;BME280;14380;49.910;6.792;2023-04-01T10:54:47;97188.50;;;11.83;100.00
26807;BME280;14380;49.910;6.792;2023-04-01T10:57:42;97184.41;;;12.00;100.00
26807;BME280;14380;49.910;6.792;2023-04-01T11:00:53;97191.16;;;11.62;100.00
26807;BME280;14380;49.910;6.792;2023-04-01T11:03:46;97198.72;;;11.67;100.00
26807;BME280;14380;49.910;6.792;2023-04-01T11:06:51;97198.63;;;11.99;100.00
26807;BME280;14380;49.910;6.792;2023-04-01T11:10:01;97201.63;;;11.95;100.00
26807;BME280;14380;49.910;6.792;2023-04-01T11:12:59;97204.75;;;12.00;100.00
26807;BME280;14380;49.910;6.792;2023-04-01T11:18:54;97193.59;;;11.75;100.00
26807;BME280;14380;49.910;6.792;2023-04-01T11:21:53;97193.06;;;11.81;100.00
26807;BME280;14380;49.910;6.792;2023-04-01T11:24:51;97200.63;;;11.86;100.00
26807;BME280;14380;49.910;6.792;2023-04-01T11:27:36;97194.50;;;12.57;100.00
26807;BME280;14380;49.910;6.792;2023-04-01T11:30:27;97195.47;;;12.66;100.00
26807;BME280;14380;49.910;6.792;2023-04-01T11:33:01;97204.25;;;12.57;100.00
26807;BME280;14380;49.910;6.792;2023-04-01T11:35:55;97212.72;;;12.51;100.00
26807;BME280;14380;49.910;6.792;2023-04-01T11:38:31;97220.00;;;11.96;100.00
26807;BME280;14380;49.910;6.792;2023-04-01T11:41:21;97220.50;;;11.80;100.00
26807;BME280;14380;49.910;6.792;2023-04-01T11:43:59;97221.72;;;11.55;100.00
26807;BME280;14380;49.910;6.792;2023-04-01T11:46:33;97223.47;;;11.87;100.00
26807;BME280;14380;49.910;6.792;2023-04-01T11:49:21;97218.63;;;11.92;100.00
26807;BME280;14380;49.910;6.792;2023-04-01T11:52:03;97229.31;;;11.90;100.00
26807;BME280;14380;49.910;6.792;2023-04-01T11:54:42;97222.53;;;11.67;100.00
26807;BME280;14380;49.910;6.792;2023-04-01T11:57:31;97226.66;;;11.90;100.00
26807;BME280;14380;49.910;6.792;2023-04-01T12:00:18;97235.13;;;11.84;100.00
26807;BME280;14380;49.910;6.792;2023-04-01T12:03:02;97222.63;;;11.86;100.00
26807;BME280;14380;49.910;6.792;2023-04-01T12:05:42;97226.84;;;11.99;100.00
26807;BME280;14380;49.910;6.792;2023-04-01T12:08:33;97232.25;;;12.18;100.00
26807;BME280;14380;49.910;6.792;2023-04-01T12:11:09;97236.56;;;12.60;100.00
26807;BME280;14380;49.910;6.792;2023-04-01T12:13:47;97237.38;;;12.51;100.00
26807;BME280;14380;49.910;6.792;2023-04-01T12:16:29;97239.38;;;11.97;100.00
26807;BME280;14380;49.910;6.792;2023-04-01T12:19:11;97247.16;;;11.98;100.00
26807;BME280;14380;49.910;6.792;2023-04-01T12:21:47;97239.34;;;11.66;100.00
26807;BME280;14380;49.910;6.792;2023-04-01T12:24:46;97253.28;;;11.68;100.00
26807;BME280;14380;49.910;6.792;2023-04-01T12:27:23;97246.94;;;11.59;100.00
26807;BME280;14380;49.910;6.792;2023-04-01T12:30:13;97249.34;;;12.14;100.00
26807;BME280;14380;49.910;6.792;2023-04-01T12:32:46;97255.03;;;12.00;100.00
26807;BME280;14380;49.910;6.792;2023-04-01T12:35:20;97254.94;;;12.11;100.00
26807;BME280;14380;49.910;6.792;2023-04-01T12:37:57;97265.63;;;11.88;100.00
26807;BME280;14380;49.910;6.792;2023-04-01T12:40:45;97268.31;;;12.19;100.00
26807;BME280;14380;49.910;6.792;2023-04-01T12:43:28;97267.47;;;12.09;100.00
26807;BME280;14380;49.910;6.792;2023-04-01T12:46:05;97265.69;;;11.98;100.00
26807;BME280;14380;49.910;6.792;2023-04-01T12:49:02;97276.28;;;11.77;100.00
26807;BME280;14380;49.910;6.792;2023-04-01T12:51:53;97275.69;;;11.95;100.00
26807;BME280;14380;49.910;6.792;2023-04-01T12:54:57;97277.78;;;11.91;100.00
26807;BME280;14380;49.910;6.792;2023-04-01T13:00:43;97276.00;;;12.54;100.00
26807;BME280;14380;49.910;6.792;2023-04-01T13:03:44;97278.09;;;12.19;100.00
26807;BME280;14380;49.910;6.792;2023-04-01T13:06:27;97283.19;;;12.11;100.00
26807;BME280;14380;49.910;6.792;2023-04-01T13:09:05;97283.25;;;11.99;100.00
26807;BME280;14380;49.910;6.792;2023-04-01T13:11:55;97286.03;;;12.19;100.00
26807;BME280;14380;49.910;6.792;2023-04-01T13:14:59;97283.97;;;12.01;100.00
26807;BME280;14380;49.910;6.792;2023-04-01T13:17:37;97294.47;;;11.92;100.00
26807;BME280;14380;49.910;6.792;2023-04-01T13:20:14;97296.56;;;12.40;100.00
26807;BME280;14380;49.910;6.792;2023-04-01T13:22:51;97291.66;;;12.04;100.00
26807;BME280;14380;49.910;6.792;2023-04-01T13:25:27;97302.16;;;12.47;100.00
26807;BME280;14380;49.910;6.792;2023-04-01T13:28:01;97297.44;;;12.19;100.00
26807;BME280;14380;49.910;6.792;2023-04-01T13:30:35;97303.03;;;12.57;100.00
26807;BME280;14380;49.910;6.792;2023-04-01T13:33:17;97302.34;;;12.24;100.00
26807;BME280;14380;49.910;6.792;2023-04-01T13:35:58;97307.38;;;12.27;100.00
26807;BME280;14380;49.910;6.792;2023-04-01T13:38:43;97301.59;;;12.12;100.00
26807;BME280;14380;49.910;6.792;2023-04-01T13:41:18;97303.63;;;12.30;100.00
26807;BME280;14380;49.910;6.792;2023-04-01T13:43:49;97307.56;;;12.14;100.00
26807;BME280;14380;49.910;6.792;2023-04-01T13:46:39;97304.19;;;12.64;100.00
26807;BME280;14380;49.910;6.792;2023-04-01T13:49:28;97303.13;;;12.77;100.00
26807;BME280;14380;49.910;6.792;2023-04-01T13:55:22;97309.72;;;12.52;100.00
26807;BME280;14380;49.910;6.792;2023-04-01T13:58:13;97312.47;;;12.50;100.00
26807;BME280;14380;49.910;6.792;2023-04-01T14:00:53;97316.72;;;12.31;100.00
26807;BME280;14380;49.910;6.792;2023-04-01T14:03:30;97328.88;;;12.44;100.00
26807;BME280;14380;49.910;6.792;2023-04-01T14:12:01;97322.78;;;11.58;100.00
26807;BME280;14380;49.910;6.792;2023-04-01T14:14:36;97331.59;;;11.48;100.00
26807;BME280;14380;49.910;6.792;2023-04-01T14:17:19;97343.09;;;11.25;100.00
26807;BME280;14380;49.910;6.792;2023-04-01T14:20:07;97333.72;;;11.54;100.00
26807;BME280;14380;49.910;6.792;2023-04-01T14:22:54;97342.66;;;11.41;100.00
26807;BME280;14380;49.910;6.792;2023-04-01T14:28:31;97350.25;;;11.88;100.00
26807;BME280;14380;49.910;6.792;2023-04-01T14:31:12;97346.94;;;11.54;100.00
26807;BME280;14380;49.910;6.792;2023-04-01T14:33:46;97352.59;;;11.49;100.00
26807;BME280;14380;49.910;6.792;2023-04-01T14:36:40;97354.31;;;11.39;100.00
26807;BME280;14380;49.910;6.792;2023-04-01T14:39:47;97355.66;;;11.33;100.00
26807;BME280;14380;49.910;6.792;2023-04-01T14:42:23;97357.31;;;11.45;100.00
26807;BME280;14380;49.910;6.792;2023-04-01T14:45:25;97357.69;;;11.29;100.00
26807;BME280;14380;49.910;6.792;2023-04-01T14:47:59;97353.75;;;11.24;100.00